West Farmington, Ohio
Current Conditions -  °F | °C
As of 1:51 PM on Sunday 23 Nov 2014 (Local Time) from KYNG Reporting Station
Overcast Overcast  
Wind Chill: 57°   Ceiling: 4800
Heat Index: 57°   Visibility: 10mi
Dew Point: 41°   Wind: 8mph
Humidity: 55%   Direction: 160°SSE
Pressure: 29.91"   Gusts: NA
Location:  41.39°N, 80.97°W
Report Text: KYNG 231851Z 16007KT 10SM SCT036 BKN048 BKN170 OVC220 14/05 A2991 RMK AO2 SLP131 T01390050
Loading
Personal Weather Stations






























Interactive Weather Map New forecast layout! Learn more

10-Day Weather Forecast

Advertisements
Track Severe Weather on mobile